sensor_id;sensor_type;location;lat;lon;timestamp;P1;durP1;ratioP1;P2;durP2;ratioP2
63093;SDS011;49183;51.380;0.098;2024-03-22T00:02:14;0.90;;;0.80;;
63093;SDS011;49183;51.380;0.098;2024-03-22T00:04:41;1.17;;;0.80;;
63093;SDS011;49183;51.380;0.098;2024-03-22T00:07:08;2.58;;;0.90;;
63093;SDS011;49183;51.380;0.098;2024-03-22T00:09:35;1.08;;;0.80;;
63093;SDS011;49183;51.380;0.098;2024-03-22T00:12:02;1.40;;;1.00;;
63093;SDS011;49183;51.380;0.098;2024-03-22T00:14:28;1.10;;;0.80;;
63093;SDS011;49183;51.380;0.098;2024-03-22T00:16:55;1.00;;;0.85;;
63093;SDS011;49183;51.380;0.098;2024-03-22T00:19:22;1.25;;;1.00;;
63093;SDS011;49183;51.380;0.098;2024-03-22T00:21:48;0.70;;;0.60;;
63093;SDS011;49183;51.380;0.098;2024-03-22T00:24:15;1.20;;;0.90;;
63093;SDS011;49183;51.380;0.098;2024-03-22T00:26:42;1.20;;;0.90;;
63093;SDS011;49183;51.380;0.098;2024-03-22T00:29:15;1.17;;;0.90;;
63093;SDS011;49183;51.380;0.098;2024-03-22T00:31:41;1.15;;;0.90;;
63093;SDS011;49183;51.380;0.098;2024-03-22T00:34:08;1.13;;;0.73;;
63093;SDS011;49183;51.380;0.098;2024-03-22T00:36:36;3.25;;;0.90;;
63093;SDS011;49183;51.380;0.098;2024-03-22T00:39:02;1.30;;;1.00;;
63093;SDS011;49183;51.380;0.098;2024-03-22T00:41:29;1.13;;;0.80;;
63093;SDS011;49183;51.380;0.098;2024-03-22T00:43:56;1.00;;;0.90;;
63093;SDS011;49183;51.380;0.098;2024-03-22T00:46:23;1.38;;;0.98;;
63093;SDS011;49183;51.380;0.098;2024-03-22T00:48:50;1.65;;;1.20;;
63093;SDS011;49183;51.380;0.098;2024-03-22T00:51:17;1.40;;;1.00;;
63093;SDS011;49183;51.380;0.098;2024-03-22T00:53:43;0.85;;;0.75;;
63093;SDS011;49183;51.380;0.098;2024-03-22T00:56:11;1.10;;;1.00;;
63093;SDS011;49183;51.380;0.098;2024-03-22T00:58:37;1.10;;;0.80;;
63093;SDS011;49183;51.380;0.098;2024-03-22T01:01:04;1.65;;;1.25;;
63093;SDS011;49183;51.380;0.098;2024-03-22T01:03:32;1.27;;;1.02;;
63093;SDS011;49183;51.380;0.098;2024-03-22T01:05:58;0.82;;;0.70;;
63093;SDS011;49183;51.380;0.098;2024-03-22T01:08:25;0.90;;;0.73;;
63093;SDS011;49183;51.380;0.098;2024-03-22T01:10:52;1.50;;;0.80;;
63093;SDS011;49183;51.380;0.098;2024-03-22T01:13:18;1.00;;;0.60;;
63093;SDS011;49183;51.380;0.098;2024-03-22T01:15:45;0.95;;;0.70;;
63093;SDS011;49183;51.380;0.098;2024-03-22T01:18:14;0.80;;;0.68;;
63093;SDS011;49183;51.380;0.098;2024-03-22T01:20:41;0.60;;;0.50;;
63093;SDS011;49183;51.380;0.098;2024-03-22T01:23:08;0.82;;;0.70;;
63093;SDS011;49183;51.380;0.098;2024-03-22T01:25:34;0.60;;;0.50;;
63093;SDS011;49183;51.380;0.098;2024-03-22T01:28:02;1.63;;;0.65;;
63093;SDS011;49183;51.380;0.098;2024-03-22T01:30:30;0.90;;;0.57;;
63093;SDS011;49183;51.380;0.098;2024-03-22T01:32:57;2.55;;;1.00;;
63093;SDS011;49183;51.380;0.098;2024-03-22T01:35:23;5.80;;;1.48;;
63093;SDS011;49183;51.380;0.098;2024-03-22T01:37:50;3.10;;;1.00;;
63093;SDS011;49183;51.380;0.098;2024-03-22T01:40:16;1.90;;;1.00;;
63093;SDS011;49183;51.380;0.098;2024-03-22T01:42:43;2.97;;;1.20;;
63093;SDS011;49183;51.380;0.098;2024-03-22T01:45:11;2.20;;;1.02;;
63093;SDS011;49183;51.380;0.098;2024-03-22T01:47:40;6.07;;;1.10;;
63093;SDS011;49183;51.380;0.098;2024-03-22T01:50:07;3.95;;;1.38;;
63093;SDS011;49183;51.380;0.098;2024-03-22T01:52:35;4.45;;;1.63;;
63093;SDS011;49183;51.380;0.098;2024-03-22T01:55:03;5.63;;;1.40;;
63093;SDS011;49183;51.380;0.098;2024-03-22T01:57:33;4.65;;;1.15;;
63093;SDS011;49183;51.380;0.098;2024-03-22T01:59:59;4.90;;;1.38;;
63093;SDS011;49183;51.380;0.098;2024-03-22T02:02:26;6.20;;;1.55;;
63093;SDS011;49183;51.380;0.098;2024-03-22T02:04:53;4.45;;;1.52;;
63093;SDS011;49183;51.380;0.098;2024-03-22T02:07:20;6.10;;;1.30;;
63093;SDS011;49183;51.380;0.098;2024-03-22T02:09:47;6.90;;;2.72;;
63093;SDS011;49183;51.380;0.098;2024-03-22T02:12:14;5.28;;;1.63;;
63093;SDS011;49183;51.380;0.098;2024-03-22T02:14:41;7.05;;;2.58;;
63093;SDS011;49183;51.380;0.098;2024-03-22T02:17:08;3.90;;;1.40;;
63093;SDS011;49183;51.380;0.098;2024-03-22T02:19:35;8.60;;;1.70;;
63093;SDS011;49183;51.380;0.098;2024-03-22T02:22:01;6.78;;;1.58;;
63093;SDS011;49183;51.380;0.098;2024-03-22T02:24:28;5.32;;;1.80;;
63093;SDS011;49183;51.380;0.098;2024-03-22T02:26:55;5.22;;;1.85;;
63093;SDS011;49183;51.380;0.098;2024-03-22T02:29:21;6.07;;;1.65;;
63093;SDS011;49183;51.380;0.098;2024-03-22T02:31:48;7.10;;;2.13;;
63093;SDS011;49183;51.380;0.098;2024-03-22T02:34:14;6.70;;;1.48;;
63093;SDS011;49183;51.380;0.098;2024-03-22T02:36:41;4.13;;;1.60;;
63093;SDS011;49183;51.380;0.098;2024-03-22T02:39:08;4.40;;;1.77;;
63093;SDS011;49183;51.380;0.098;2024-03-22T02:41:35;3.40;;;1.60;;
63093;SDS011;49183;51.380;0.098;2024-03-22T02:44:02;4.82;;;1.55;;
63093;SDS011;49183;51.380;0.098;2024-03-22T02:46:28;3.55;;;1.45;;
63093;SDS011;49183;51.380;0.098;2024-03-22T02:48:55;5.68;;;2.00;;
63093;SDS011;49183;51.380;0.098;2024-03-22T02:51:21;11.93;;;2.35;;
63093;SDS011;49183;51.380;0.098;2024-03-22T02:53:48;4.60;;;1.45;;
63093;SDS011;49183;51.380;0.098;2024-03-22T02:56:16;4.78;;;1.73;;
63093;SDS011;49183;51.380;0.098;2024-03-22T02:58:42;7.85;;;2.10;;
63093;SDS011;49183;51.380;0.098;2024-03-22T03:01:09;6.80;;;2.03;;
63093;SDS011;49183;51.380;0.098;2024-03-22T03:03:35;4.55;;;1.67;;
63093;SDS011;49183;51.380;0.098;2024-03-22T03:06:02;8.00;;;2.08;;
63093;SDS011;49183;51.380;0.098;2024-03-22T03:08:29;6.70;;;1.67;;
63093;SDS011;49183;51.380;0.098;2024-03-22T03:10:55;4.65;;;2.10;;
63093;SDS011;49183;51.380;0.098;2024-03-22T03:13:22;7.38;;;1.65;;
63093;SDS011;49183;51.380;0.098;2024-03-22T03:15:49;3.25;;;1.77;;
63093;SDS011;49183;51.380;0.098;2024-03-22T03:18:15;5.70;;;2.03;;
63093;SDS011;49183;51.380;0.098;2024-03-22T03:20:42;3.28;;;1.45;;
63093;SDS011;49183;51.380;0.098;2024-03-22T03:23:10;7.65;;;2.63;;
63093;SDS011;49183;51.380;0.098;2024-03-22T03:25:36;5.20;;;1.98;;
63093;SDS011;49183;51.380;0.098;2024-03-22T03:28:03;6.57;;;1.70;;
63093;SDS011;49183;51.380;0.098;2024-03-22T03:30:30;7.75;;;2.83;;
63093;SDS011;49183;51.380;0.098;2024-03-22T03:32:56;8.57;;;1.88;;
63093;SDS011;49183;51.380;0.098;2024-03-22T03:35:23;8.00;;;1.98;;
63093;SDS011;49183;51.380;0.098;2024-03-22T03:37:51;8.20;;;2.13;;
63093;SDS011;49183;51.380;0.098;2024-03-22T03:40:18;9.80;;;2.90;;
63093;SDS011;49183;51.380;0.098;2024-03-22T03:42:45;8.82;;;2.42;;
63093;SDS011;49183;51.380;0.098;2024-03-22T03:45:11;5.53;;;1.95;;
63093;SDS011;49183;51.380;0.098;2024-03-22T03:47:39;9.20;;;1.88;;
63093;SDS011;49183;51.380;0.098;2024-03-22T03:50:06;4.78;;;2.20;;
63093;SDS011;49183;51.380;0.098;2024-03-22T03:52:33;6.28;;;1.75;;
63093;SDS011;49183;51.380;0.098;2024-03-22T03:54:59;6.82;;;1.92;;
63093;SDS011;49183;51.380;0.098;2024-03-22T03:57:26;5.60;;;1.70;;
63093;SDS011;49183;51.380;0.098;2024-03-22T03:59:53;5.25;;;1.40;;
63093;SDS011;49183;51.380;0.098;2024-03-22T04:02:19;8.05;;;2.45;;
63093;SDS011;49183;51.380;0.098;2024-03-22T04:04:46;8.75;;;2.08;;
63093;SDS011;49183;51.380;0.098;2024-03-22T04:07:13;3.72;;;1.73;;
63093;SDS011;49183;51.380;0.098;2024-03-22T04:09:40;5.75;;;2.45;;
63093;SDS011;49183;51.380;0.098;2024-03-22T04:12:06;6.78;;;1.70;;
63093;SDS011;49183;51.380;0.098;2024-03-22T04:14:33;9.77;;;2.22;;
63093;SDS011;49183;51.380;0.098;2024-03-22T04:17:00;5.60;;;1.92;;
63093;SDS011;49183;51.380;0.098;2024-03-22T04:19:26;7.60;;;1.95;;
63093;SDS011;49183;51.380;0.098;2024-03-22T04:21:53;8.10;;;2.88;;
63093;SDS011;49183;51.380;0.098;2024-03-22T04:24:19;3.88;;;1.55;;
63093;SDS011;49183;51.380;0.098;2024-03-22T04:26:47;6.32;;;1.80;;
63093;SDS011;49183;51.380;0.098;2024-03-22T04:29:14;4.78;;;1.55;;
63093;SDS011;49183;51.380;0.098;2024-03-22T04:31:41;5.15;;;1.70;;
63093;SDS011;49183;51.380;0.098;2024-03-22T04:34:08;6.82;;;2.03;;
63093;SDS011;49183;51.380;0.098;2024-03-22T04:36:36;5.97;;;2.60;;
63093;SDS011;49183;51.380;0.098;2024-03-22T04:39:03;7.32;;;2.13;;
63093;SDS011;49183;51.380;0.098;2024-03-22T04:41:30;6.20;;;1.88;;
63093;SDS011;49183;51.380;0.098;2024-03-22T04:43:56;4.80;;;2.05;;
63093;SDS011;49183;51.380;0.098;2024-03-22T04:46:23;9.30;;;2.28;;
63093;SDS011;49183;51.380;0.098;2024-03-22T04:48:50;9.52;;;2.10;;
63093;SDS011;49183;51.380;0.098;2024-03-22T04:51:16;7.93;;;2.10;;
63093;SDS011;49183;51.380;0.098;2024-03-22T04:53:44;7.07;;;2.22;;
63093;SDS011;49183;51.380;0.098;2024-03-22T04:56:10;7.10;;;2.10;;
63093;SDS011;49183;51.380;0.098;2024-03-22T04:58:37;6.50;;;2.15;;
63093;SDS011;49183;51.380;0.098;2024-03-22T05:01:03;7.40;;;2.33;;
63093;SDS011;49183;51.380;0.098;2024-03-22T05:03:30;4.32;;;1.75;;
63093;SDS011;49183;51.380;0.098;2024-03-22T05:05:57;9.95;;;2.25;;
63093;SDS011;49183;51.380;0.098;2024-03-22T05:08:24;6.35;;;2.20;;
63093;SDS011;49183;51.380;0.098;2024-03-22T05:10:52;8.10;;;2.40;;
63093;SDS011;49183;51.380;0.098;2024-03-22T05:13:19;7.65;;;2.58;;
63093;SDS011;49183;51.380;0.098;2024-03-22T05:15:46;4.72;;;1.77;;
63093;SDS011;49183;51.380;0.098;2024-03-22T05:18:12;8.60;;;1.98;;
63093;SDS011;49183;51.380;0.098;2024-03-22T05:20:39;8.27;;;2.22;;
63093;SDS011;49183;51.380;0.098;2024-03-22T05:23:05;4.88;;;1.73;;
63093;SDS011;49183;51.380;0.098;2024-03-22T05:25:32;8.18;;;2.20;;
63093;SDS011;49183;51.380;0.098;2024-03-22T05:27:59;8.55;;;2.45;;
63093;SDS011;49183;51.380;0.098;2024-03-22T05:30:25;8.82;;;2.53;;
63093;SDS011;49183;51.380;0.098;2024-03-22T05:32:52;10.77;;;2.30;;
63093;SDS011;49183;51.380;0.098;2024-03-22T05:35:19;6.47;;;2.22;;
63093;SDS011;49183;51.380;0.098;2024-03-22T05:37:46;5.53;;;2.00;;
63093;SDS011;49183;51.380;0.098;2024-03-22T05:40:14;5.28;;;1.70;;
63093;SDS011;49183;51.380;0.098;2024-03-22T05:42:42;6.13;;;1.77;;
63093;SDS011;49183;51.380;0.098;2024-03-22T05:45:08;7.18;;;3.75;;
63093;SDS011;49183;51.380;0.098;2024-03-22T05:47:35;8.63;;;1.77;;
63093;SDS011;49183;51.380;0.098;2024-03-22T05:50:04;9.02;;;3.05;;
63093;SDS011;49183;51.380;0.098;2024-03-22T05:52:34;9.55;;;2.00;;
63093;SDS011;49183;51.380;0.098;2024-03-22T05:55:01;8.75;;;2.33;;
63093;SDS011;49183;51.380;0.098;2024-03-22T05:57:27;6.50;;;2.40;;
63093;SDS011;49183;51.380;0.098;2024-03-22T05:59:54;9.30;;;2.75;;
63093;SDS011;49183;51.380;0.098;2024-03-22T06:02:21;5.90;;;2.00;;
63093;SDS011;49183;51.380;0.098;2024-03-22T06:04:48;10.48;;;3.08;;
63093;SDS011;49183;51.380;0.098;2024-03-22T06:07:14;15.75;;;3.45;;
63093;SDS011;49183;51.380;0.098;2024-03-22T06:09:43;8.95;;;2.60;;
63093;SDS011;49183;51.380;0.098;2024-03-22T06:12:13;13.57;;;2.95;;
63093;SDS011;49183;51.380;0.098;2024-03-22T06:14:40;26.13;;;4.68;;
63093;SDS011;49183;51.380;0.098;2024-03-22T06:17:08;8.98;;;3.08;;
63093;SDS011;49183;51.380;0.098;2024-03-22T06:19:36;16.75;;;3.58;;
63093;SDS011;49183;51.380;0.098;2024-03-22T06:22:03;19.73;;;4.68;;
63093;SDS011;49183;51.380;0.098;2024-03-22T06:24:30;21.63;;;5.05;;
63093;SDS011;49183;51.380;0.098;2024-03-22T06:26:57;25.83;;;6.97;;
63093;SDS011;49183;51.380;0.098;2024-03-22T06:29:23;25.58;;;3.40;;
63093;SDS011;49183;51.380;0.098;2024-03-22T06:31:51;15.70;;;3.75;;
63093;SDS011;49183;51.380;0.098;2024-03-22T06:34:18;23.40;;;6.13;;
63093;SDS011;49183;51.380;0.098;2024-03-22T06:36:45;17.45;;;4.18;;
63093;SDS011;49183;51.380;0.098;2024-03-22T06:39:13;26.58;;;5.47;;
63093;SDS011;49183;51.380;0.098;2024-03-22T06:41:40;21.25;;;5.68;;
63093;SDS011;49183;51.380;0.098;2024-03-22T06:44:07;25.98;;;5.97;;
63093;SDS011;49183;51.380;0.098;2024-03-22T06:46:38;22.10;;;5.60;;
63093;SDS011;49183;51.380;0.098;2024-03-22T06:49:06;24.15;;;5.20;;
63093;SDS011;49183;51.380;0.098;2024-03-22T06:51:33;27.58;;;6.47;;
63093;SDS011;49183;51.380;0.098;2024-03-22T06:53:59;27.80;;;5.40;;
63093;SDS011;49183;51.380;0.098;2024-03-22T06:56:26;32.05;;;5.72;;
63093;SDS011;49183;51.380;0.098;2024-03-22T06:58:53;26.70;;;5.38;;
63093;SDS011;49183;51.380;0.098;2024-03-22T07:01:19;26.95;;;5.75;;
63093;SDS011;49183;51.380;0.098;2024-03-22T07:03:46;27.58;;;4.55;;
63093;SDS011;49183;51.380;0.098;2024-03-22T07:06:14;29.90;;;5.72;;
63093;SDS011;49183;51.380;0.098;2024-03-22T07:08:41;23.58;;;5.28;;
63093;SDS011;49183;51.380;0.098;2024-03-22T07:11:08;25.02;;;6.30;;
63093;SDS011;49183;51.380;0.098;2024-03-22T07:13:34;24.33;;;6.32;;
63093;SDS011;49183;51.380;0.098;2024-03-22T07:16:01;20.02;;;5.80;;
63093;SDS011;49183;51.380;0.098;2024-03-22T07:18:30;26.77;;;5.03;;
63093;SDS011;49183;51.380;0.098;2024-03-22T07:20:57;20.80;;;4.83;;
63093;SDS011;49183;51.380;0.098;2024-03-22T07:23:28;28.73;;;6.97;;
63093;SDS011;49183;51.380;0.098;2024-03-22T07:25:55;26.92;;;6.30;;
63093;SDS011;49183;51.380;0.098;2024-03-22T07:28:21;24.27;;;5.75;;
63093;SDS011;49183;51.380;0.098;2024-03-22T07:30:48;28.60;;;5.93;;
63093;SDS011;49183;51.380;0.098;2024-03-22T07:33:15;27.85;;;5.63;;
63093;SDS011;49183;51.380;0.098;2024-03-22T07:35:44;23.35;;;6.50;;
63093;SDS011;49183;51.380;0.098;2024-03-22T07:38:10;17.48;;;4.85;;
63093;SDS011;49183;51.380;0.098;2024-03-22T07:40:38;27.98;;;5.82;;
63093;SDS011;49183;51.380;0.098;2024-03-22T07:43:05;19.73;;;5.17;;
63093;SDS011;49183;51.380;0.098;2024-03-22T07:45:33;25.73;;;6.07;;
63093;SDS011;49183;51.380;0.098;2024-03-22T07:48:00;27.33;;;8.13;;
63093;SDS011;49183;51.380;0.098;2024-03-22T07:50:28;27.02;;;6.78;;
63093;SDS011;49183;51.380;0.098;2024-03-22T07:52:55;27.85;;;5.72;;
63093;SDS011;49183;51.380;0.098;2024-03-22T07:55:22;26.88;;;7.30;;
63093;SDS011;49183;51.380;0.098;2024-03-22T07:57:49;23.85;;;4.88;;
63093;SDS011;49183;51.380;0.098;2024-03-22T08:00:15;36.67;;;7.20;;
63093;SDS011;49183;51.380;0.098;2024-03-22T08:02:42;22.88;;;4.65;;
63093;SDS011;49183;51.380;0.098;2024-03-22T08:05:09;23.83;;;5.25;;
63093;SDS011;49183;51.380;0.098;2024-03-22T08:07:36;24.58;;;4.30;;
63093;SDS011;49183;51.380;0.098;2024-03-22T08:10:03;21.25;;;6.22;;
63093;SDS011;49183;51.380;0.098;2024-03-22T08:12:30;24.00;;;6.10;;
63093;SDS011;49183;51.380;0.098;2024-03-22T08:14:57;24.00;;;5.45;;
63093;SDS011;49183;51.380;0.098;2024-03-22T08:17:23;21.80;;;5.07;;
63093;SDS011;49183;51.380;0.098;2024-03-22T08:19:50;19.40;;;5.00;;
63093;SDS011;49183;51.380;0.098;2024-03-22T08:22:17;18.30;;;4.90;;
63093;SDS011;49183;51.380;0.098;2024-03-22T08:24:44;20.70;;;4.43;;
63093;SDS011;49183;51.380;0.098;2024-03-22T08:27:11;26.88;;;5.72;;
63093;SDS011;49183;51.380;0.098;2024-03-22T08:29:39;16.02;;;3.80;;
63093;SDS011;49183;51.380;0.098;2024-03-22T08:32:07;29.10;;;5.60;;
63093;SDS011;49183;51.380;0.098;2024-03-22T08:34:33;27.38;;;5.20;;
63093;SDS011;49183;51.380;0.098;2024-03-22T08:37:00;27.25;;;5.07;;
63093;SDS011;49183;51.380;0.098;2024-03-22T08:39:27;19.30;;;4.63;;
63093;SDS011;49183;51.380;0.098;2024-03-22T08:41:53;22.08;;;4.22;;
63093;SDS011;49183;51.380;0.098;2024-03-22T08:44:21;21.10;;;5.03;;
63093;SDS011;49183;51.380;0.098;2024-03-22T08:46:47;20.92;;;5.20;;
63093;SDS011;49183;51.380;0.098;2024-03-22T08:49:15;18.98;;;4.82;;
63093;SDS011;49183;51.380;0.098;2024-03-22T08:51:45;15.38;;;3.80;;
63093;SDS011;49183;51.380;0.098;2024-03-22T08:54:12;23.08;;;4.85;;
63093;SDS011;49183;51.380;0.098;2024-03-22T08:56:39;16.95;;;3.72;;
63093;SDS011;49183;51.380;0.098;2024-03-22T08:59:05;24.23;;;4.95;;
63093;SDS011;49183;51.380;0.098;2024-03-22T09:01:32;20.13;;;3.97;;
63093;SDS011;49183;51.380;0.098;2024-03-22T09:03:59;29.60;;;5.40;;
63093;SDS011;49183;51.380;0.098;2024-03-22T09:06:25;21.42;;;5.03;;
63093;SDS011;49183;51.380;0.098;2024-03-22T09:08:52;17.70;;;4.70;;
63093;SDS011;49183;51.380;0.098;2024-03-22T09:11:22;28.20;;;5.57;;
63093;SDS011;49183;51.380;0.098;2024-03-22T09:13:51;17.98;;;4.18;;
63093;SDS011;49183;51.380;0.098;2024-03-22T09:16:19;17.77;;;3.92;;
63093;SDS011;49183;51.380;0.098;2024-03-22T09:18:46;17.30;;;4.57;;
63093;SDS011;49183;51.380;0.098;2024-03-22T09:21:13;22.00;;;4.30;;
63093;SDS011;49183;51.380;0.098;2024-03-22T09:23:40;12.57;;;3.33;;
63093;SDS011;49183;51.380;0.098;2024-03-22T09:26:07;18.30;;;3.67;;
63093;SDS011;49183;51.380;0.098;2024-03-22T09:28:33;18.25;;;4.28;;
63093;SDS011;49183;51.380;0.098;2024-03-22T09:31:06;19.63;;;4.28;;
63093;SDS011;49183;51.380;0.098;2024-03-22T09:33:33;21.90;;;4.80;;
63093;SDS011;49183;51.380;0.098;2024-03-22T09:36:00;13.40;;;3.22;;
63093;SDS011;49183;51.380;0.098;2024-03-22T09:38:27;14.23;;;3.63;;
63093;SDS011;49183;51.380;0.098;2024-03-22T09:40:54;15.00;;;3.88;;
63093;SDS011;49183;51.380;0.098;2024-03-22T09:43:21;16.65;;;3.47;;
63093;SDS011;49183;51.380;0.098;2024-03-22T09:45:49;11.38;;;2.53;;
63093;SDS011;49183;51.380;0.098;2024-03-22T09:48:19;13.88;;;3.38;;
63093;SDS011;49183;51.380;0.098;2024-03-22T09:50:46;16.90;;;4.20;;
63093;SDS011;49183;51.380;0.098;2024-03-22T09:53:18;13.70;;;2.60;;
63093;SDS011;49183;51.380;0.098;2024-03-22T09:55:48;12.60;;;3.13;;
63093;SDS011;49183;51.380;0.098;2024-03-22T09:58:16;14.23;;;3.90;;
63093;SDS011;49183;51.380;0.098;2024-03-22T10:00:43;11.88;;;3.33;;
63093;SDS011;49183;51.380;0.098;2024-03-22T10:03:10;11.45;;;3.50;;
63093;SDS011;49183;51.380;0.098;2024-03-22T10:05:37;13.10;;;4.82;;
63093;SDS011;49183;51.380;0.098;2024-03-22T10:08:04;14.98;;;3.20;;
63093;SDS011;49183;51.380;0.098;2024-03-22T10:10:34;10.30;;;2.95;;
63093;SDS011;49183;51.380;0.098;2024-03-22T10:13:01;14.70;;;4.13;;
63093;SDS011;49183;51.380;0.098;2024-03-22T10:15:29;16.50;;;4.90;;
63093;SDS011;49183;51.380;0.098;2024-03-22T10:17:56;12.75;;;3.42;;
63093;SDS011;49183;51.380;0.098;2024-03-22T10:20:24;13.85;;;2.67;;
63093;SDS011;49183;51.380;0.098;2024-03-22T10:22:56;15.55;;;3.83;;
63093;SDS011;49183;51.380;0.098;2024-03-22T10:25:25;17.88;;;3.47;;
63093;SDS011;49183;51.380;0.098;2024-03-22T10:30:22;13.73;;;2.92;;
63093;SDS011;49183;51.380;0.098;2024-03-22T10:32:50;13.65;;;3.60;;
63093;SDS011;49183;51.380;0.098;2024-03-22T10:35:17;12.43;;;3.03;;
63093;SDS011;49183;51.380;0.098;2024-03-22T10:37:44;12.55;;;2.65;;
63093;SDS011;49183;51.380;0.098;2024-03-22T10:40:12;10.73;;;3.03;;
63093;SDS011;49183;51.380;0.098;2024-03-22T10:42:40;15.23;;;3.28;;
63093;SDS011;49183;51.380;0.098;2024-03-22T10:45:08;8.20;;;3.25;;
63093;SDS011;49183;51.380;0.098;2024-03-22T10:47:36;10.32;;;2.67;;
63093;SDS011;49183;51.380;0.098;2024-03-22T10:50:07;17.97;;;4.13;;
63093;SDS011;49183;51.380;0.098;2024-03-22T10:55:12;9.75;;;2.28;;
63093;SDS011;49183;51.380;0.098;2024-03-22T10:57:57;16.90;;;2.53;;
63093;SDS011;49183;51.380;0.098;2024-03-22T11:00:28;8.85;;;2.47;;
63093;SDS011;49183;51.380;0.098;2024-03-22T11:02:56;9.98;;;3.28;;
63093;SDS011;49183;51.380;0.098;2024-03-22T11:05:23;9.35;;;3.25;;
63093;SDS011;49183;51.380;0.098;2024-03-22T11:08:11;6.55;;;2.15;;
63093;SDS011;49183;51.380;0.098;2024-03-22T11:10:36;9.60;;;2.90;;
63093;SDS011;49183;51.380;0.098;2024-03-22T11:13:04;7.97;;;2.08;;
63093;SDS011;49183;51.380;0.098;2024-03-22T11:15:33;16.85;;;3.70;;
63093;SDS011;49183;51.380;0.098;2024-03-22T11:18:00;9.32;;;2.72;;
63093;SDS011;49183;51.380;0.098;2024-03-22T11:20:27;8.30;;;2.13;;
63093;SDS011;49183;51.380;0.098;2024-03-22T11:22:56;12.00;;;3.17;;
63093;SDS011;49183;51.380;0.098;2024-03-22T11:25:22;12.02;;;3.30;;
63093;SDS011;49183;51.380;0.098;2024-03-22T11:27:49;9.75;;;3.97;;
63093;SDS011;49183;51.380;0.098;2024-03-22T11:30:16;9.52;;;3.13;;
63093;SDS011;49183;51.380;0.098;2024-03-22T11:32:43;11.07;;;2.95;;
63093;SDS011;49183;51.380;0.098;2024-03-22T11:35:11;5.97;;;2.03;;
63093;SDS011;49183;51.380;0.098;2024-03-22T11:37:39;11.02;;;2.92;;
63093;SDS011;49183;51.380;0.098;2024-03-22T11:40:10;7.35;;;2.67;;
63093;SDS011;49183;51.380;0.098;2024-03-22T11:42:38;12.85;;;3.35;;
63093;SDS011;49183;51.380;0.098;2024-03-22T11:45:08;8.57;;;2.70;;
63093;SDS011;49183;51.380;0.098;2024-03-22T11:47:36;11.25;;;3.20;;
63093;SDS011;49183;51.380;0.098;2024-03-22T11:50:03;12.65;;;3.03;;
63093;SDS011;49183;51.380;0.098;2024-03-22T11:52:31;13.82;;;4.32;;
63093;SDS011;49183;51.380;0.098;2024-03-22T11:54:58;12.48;;;3.13;;
63093;SDS011;49183;51.380;0.098;2024-03-22T11:57:25;16.30;;;4.35;;
63093;SDS011;49183;51.380;0.098;2024-03-22T11:59:52;11.45;;;3.55;;
63093;SDS011;49183;51.380;0.098;2024-03-22T12:02:25;12.57;;;2.97;;
63093;SDS011;49183;51.380;0.098;2024-03-22T12:04:52;9.27;;;2.42;;
63093;SDS011;49183;51.380;0.098;2024-03-22T12:07:19;17.20;;;2.85;;
63093;SDS011;49183;51.380;0.098;2024-03-22T12:09:46;13.63;;;2.90;;
63093;SDS011;49183;51.380;0.098;2024-03-22T12:12:13;9.55;;;3.45;;
63093;SDS011;49183;51.380;0.098;2024-03-22T12:14:40;10.45;;;1.90;;
63093;SDS011;49183;51.380;0.098;2024-03-22T12:17:07;8.05;;;2.70;;
63093;SDS011;49183;51.380;0.098;2024-03-22T12:19:34;6.97;;;2.00;;
63093;SDS011;49183;51.380;0.098;2024-03-22T12:22:01;7.70;;;2.05;;
63093;SDS011;49183;51.380;0.098;2024-03-22T12:24:28;8.85;;;2.80;;
63093;SDS011;49183;51.380;0.098;2024-03-22T12:26:55;5.63;;;1.67;;
63093;SDS011;49183;51.380;0.098;2024-03-22T12:29:21;8.43;;;2.33;;
63093;SDS011;49183;51.380;0.098;2024-03-22T12:31:48;7.57;;;2.30;;
63093;SDS011;49183;51.380;0.098;2024-03-22T12:34:16;12.00;;;2.25;;
63093;SDS011;49183;51.380;0.098;2024-03-22T12:36:44;9.13;;;2.22;;
63093;SDS011;49183;51.380;0.098;2024-03-22T12:39:11;10.52;;;2.15;;
63093;SDS011;49183;51.380;0.098;2024-03-22T12:41:37;12.98;;;2.70;;
63093;SDS011;49183;51.380;0.098;2024-03-22T12:44:04;13.57;;;3.70;;
63093;SDS011;49183;51.380;0.098;2024-03-22T12:46:31;15.35;;;3.78;;
63093;SDS011;49183;51.380;0.098;2024-03-22T12:48:57;12.63;;;2.60;;
63093;SDS011;49183;51.380;0.098;2024-03-22T12:51:24;13.80;;;4.15;;
63093;SDS011;49183;51.380;0.098;2024-03-22T12:53:51;9.60;;;3.53;;
63093;SDS011;49183;51.380;0.098;2024-03-22T12:56:18;17.85;;;3.55;;
63093;SDS011;49183;51.380;0.098;2024-03-22T12:58:45;20.88;;;3.42;;
63093;SDS011;49183;51.380;0.098;2024-03-22T13:01:13;11.48;;;3.78;;
63093;SDS011;49183;51.380;0.098;2024-03-22T13:03:40;16.55;;;2.65;;
63093;SDS011;49183;51.380;0.098;2024-03-22T13:06:07;11.65;;;2.53;;
63093;SDS011;49183;51.380;0.098;2024-03-22T13:08:33;9.30;;;3.17;;
63093;SDS011;49183;51.380;0.098;2024-03-22T13:11:00;8.45;;;2.70;;
63093;SDS011;49183;51.380;0.098;2024-03-22T13:13:27;15.88;;;3.28;;
63093;SDS011;49183;51.380;0.098;2024-03-22T13:15:56;14.45;;;2.42;;
63093;SDS011;49183;51.380;0.098;2024-03-22T13:18:22;14.10;;;2.55;;
63093;SDS011;49183;51.380;0.098;2024-03-22T13:20:49;9.57;;;2.47;;
63093;SDS011;49183;51.380;0.098;2024-03-22T13:23:16;9.07;;;3.25;;
63093;SDS011;49183;51.380;0.098;2024-03-22T13:25:43;10.57;;;2.55;;
63093;SDS011;49183;51.380;0.098;2024-03-22T13:28:10;13.70;;;3.47;;
63093;SDS011;49183;51.380;0.098;2024-03-22T13:30:36;6.80;;;2.28;;
63093;SDS011;49183;51.380;0.098;2024-03-22T13:33:03;16.05;;;3.42;;
63093;SDS011;49183;51.380;0.098;2024-03-22T13:35:30;14.23;;;3.00;;
63093;SDS011;49183;51.380;0.098;2024-03-22T13:37:59;10.30;;;2.03;;
63093;SDS011;49183;51.380;0.098;2024-03-22T13:40:26;5.43;;;2.45;;
63093;SDS011;49183;51.380;0.098;2024-03-22T13:42:54;8.35;;;2.15;;
63093;SDS011;49183;51.380;0.098;2024-03-22T13:45:21;13.70;;;4.15;;
63093;SDS011;49183;51.380;0.098;2024-03-22T13:47:48;9.85;;;2.60;;
63093;SDS011;49183;51.380;0.098;2024-03-22T13:50:14;8.48;;;2.53;;
63093;SDS011;49183;51.380;0.098;2024-03-22T13:52:42;7.35;;;2.67;;
63093;SDS011;49183;51.380;0.098;2024-03-22T13:55:08;8.77;;;2.25;;
63093;SDS011;49183;51.380;0.098;2024-03-22T13:57:35;9.05;;;2.45;;
63093;SDS011;49183;51.380;0.098;2024-03-22T14:00:02;7.63;;;2.20;;
63093;SDS011;49183;51.380;0.098;2024-03-22T14:02:38;11.85;;;2.05;;
63093;SDS011;49183;51.380;0.098;2024-03-22T14:05:05;13.00;;;2.90;;
63093;SDS011;49183;51.380;0.098;2024-03-22T14:07:34;11.38;;;3.00;;
63093;SDS011;49183;51.380;0.098;2024-03-22T14:10:02;8.13;;;1.90;;
63093;SDS011;49183;51.380;0.098;2024-03-22T14:12:29;6.78;;;2.22;;
63093;SDS011;49183;51.380;0.098;2024-03-22T14:14:55;8.65;;;2.22;;
63093;SDS011;49183;51.380;0.098;2024-03-22T14:17:22;8.13;;;2.47;;
63093;SDS011;49183;51.380;0.098;2024-03-22T14:19:49;10.25;;;2.42;;
63093;SDS011;49183;51.380;0.098;2024-03-22T14:22:16;13.93;;;3.22;;
63093;SDS011;49183;51.380;0.098;2024-03-22T14:24:42;10.45;;;2.40;;
63093;SDS011;49183;51.380;0.098;2024-03-22T14:27:09;14.63;;;3.10;;
63093;SDS011;49183;51.380;0.098;2024-03-22T14:29:36;5.43;;;2.00;;
63093;SDS011;49183;51.380;0.098;2024-03-22T14:32:03;7.88;;;2.53;;
63093;SDS011;49183;51.380;0.098;2024-03-22T14:34:33;7.03;;;2.03;;
63093;SDS011;49183;51.380;0.098;2024-03-22T14:36:59;6.50;;;2.13;;
63093;SDS011;49183;51.380;0.098;2024-03-22T14:39:26;5.80;;;1.17;;
63093;SDS011;49183;51.380;0.098;2024-03-22T14:41:53;7.65;;;1.85;;
63093;SDS011;49183;51.380;0.098;2024-03-22T14:44:21;6.78;;;1.98;;
63093;SDS011;49183;51.380;0.098;2024-03-22T14:46:48;5.93;;;1.40;;